Time;durP1;ratioP1;P1;durP2;ratioP2;P2;SDS_P1;SDS_P2;PMS_P1;PMS_P2;Temp;Humidity;BMP_temperature;BMP_pressure;BME280_temperature;BME280_humidity;BME280_pressure;Samples;Min_cycle;Max_cycle;Signal;HPM_P1;HPM_P2
2023/07/29 00:02:01;;;;;;;15.10;9.52;;;17.70;99.90;;;;;;4993603;28;20034;-76
2023/07/29 00:04:26;;;;;;;16.85;9.57;;;17.70;99.90;;;;;;5011642;28;20467;-76
2023/07/29 00:06:52;;;;;;;13.75;10.05;;;17.70;99.90;;;;;;5004653;28;20411;-76
2023/07/29 00:09:18;;;;;;;14.27;8.60;;;17.70;99.90;;;;;;4994723;28;20054;-76
2023/07/29 00:11:43;;;;;;;13.07;9.40;;;17.70;99.90;;;;;;4994178;28;20038;-76
2023/07/29 00:14:09;;;;;;;15.73;10.52;;;17.70;99.90;;;;;;4978682;28;20524;-76
2023/07/29 00:16:35;;;;;;;14.65;9.75;;;17.70;99.90;;;;;;5010238;28;20045;-76
2023/07/29 00:19:02;;;;;;;19.52;10.40;;;17.70;99.90;;;;;;5010870;28;20038;-76
2023/07/29 00:21:28;;;;;;;15.70;9.48;;;17.70;99.90;;;;;;5006106;28;20038;-76
2023/07/29 00:23:53;;;;;;;18.83;11.00;;;17.70;99.90;;;;;;4994407;28;20045;-76
2023/07/29 00:26:20;;;;;;;17.83;10.90;;;17.70;99.90;;;;;;5011077;28;20041;-77
2023/07/29 00:28:45;;;;;;;20.10;11.20;;;17.70;99.90;;;;;;4994433;28;20142;-76
2023/07/29 00:31:11;;;;;;;20.77;10.15;;;17.70;99.90;;;;;;4991158;28;20113;-76
2023/07/29 00:33:37;;;;;;;14.55;10.15;;;17.80;99.90;;;;;;4992756;28;20049;-76
2023/07/29 00:36:03;;;;;;;16.20;10.15;;;17.70;99.90;;;;;;4994660;28;20139;-76
2023/07/29 00:38:28;;;;;;;15.48;10.55;;;17.80;99.90;;;;;;5009635;28;20050;-76
2023/07/29 00:41:00;;;;;;;16.98;10.85;;;17.80;99.90;;;;;;4994624;28;20045;-76
2023/07/29 00:43:26;;;;;;;16.65;10.40;;;17.70;99.90;;;;;;5010134;28;20413;-76
2023/07/29 00:45:52;;;;;;;14.73;10.98;;;17.80;99.90;;;;;;4994516;28;20124;-76
2023/07/29 00:48:18;;;;;;;14.57;10.85;;;17.80;99.90;;;;;;4993942;28;20048;-76
2023/07/29 00:50:44;;;;;;;20.48;11.48;;;17.80;99.90;;;;;;5010803;28;20049;-76
2023/07/29 00:53:10;;;;;;;17.13;10.77;;;17.80;99.90;;;;;;4993362;28;20046;-76
2023/07/29 00:55:36;;;;;;;16.65;10.32;;;17.80;99.90;;;;;;5010629;28;20104;-76
2023/07/29 00:58:02;;;;;;;16.75;10.43;;;17.80;99.90;;;;;;5006172;28;20038;-76
2023/07/29 01:00:28;;;;;;;18.58;10.13;;;17.80;99.90;;;;;;5009925;28;20042;-76
2023/07/29 01:02:54;;;;;;;17.75;10.82;;;17.80;99.90;;;;;;4991142;28;20096;-76
2023/07/29 01:05:21;;;;;;;16.15;10.65;;;17.80;99.90;;;;;;4976113;28;20042;-76
2023/07/29 01:08:02;;;;;;;16.52;9.82;;;17.80;99.90;;;;;;4992900;28;20041;-76
2023/07/29 01:10:46;;;;;;;18.17;8.98;;;17.80;99.90;;;;;;4992485;28;20484;-76
2023/07/29 01:13:32;;;;;;;16.52;10.25;;;17.80;99.90;;;;;;4991785;28;20121;-76
2023/07/29 01:16:14;;;;;;;13.30;9.15;;;17.80;99.90;;;;;;4988724;28;20121;-76
2023/07/29 01:18:41;;;;;;;19.10;9.98;;;17.80;99.90;;;;;;4989099;28;20034;-76
2023/07/29 01:21:09;;;;;;;12.55;9.15;;;17.80;99.90;;;;;;4990359;28;20046;-76
2023/07/29 01:23:35;;;;;;;13.02;9.60;;;17.80;99.90;;;;;;5006054;28;20129;-76
2023/07/29 01:26:02;;;;;;;14.85;8.93;;;17.80;99.90;;;;;;4993666;28;20034;-76
2023/07/29 01:28:28;;;;;;;13.95;9.55;;;17.70;99.90;;;;;;4983792;28;20477;-76
2023/07/29 01:31:12;;;;;;;17.58;9.30;;;17.70;99.90;;;;;;4989799;28;20052;-76
2023/07/29 01:33:52;;;;;;;13.68;9.40;;;17.70;99.90;;;;;;5006104;28;20129;-76
2023/07/29 01:36:26;;;;;;;12.95;8.18;;;17.70;99.90;;;;;;4990100;28;20108;-76
2023/07/29 01:38:54;;;;;;;16.15;9.80;;;17.70;99.90;;;;;;4996957;28;20469;-76
2023/07/29 01:41:21;;;;;;;14.30;8.50;;;17.70;99.90;;;;;;4989976;28;20042;-76
2023/07/29 01:43:47;;;;;;;16.83;9.38;;;17.60;99.90;;;;;;5003415;28;20042;-76
2023/07/29 01:46:16;;;;;;;12.43;9.13;;;17.60;99.90;;;;;;4977172;28;20045;-76
2023/07/29 01:48:42;;;;;;;12.70;9.68;;;17.50;99.90;;;;;;4992971;28;20033;-76
2023/07/29 01:51:08;;;;;;;15.18;9.38;;;17.50;99.90;;;;;;5009265;28;20088;-76
2023/07/29 01:53:34;;;;;;;12.45;9.10;;;17.40;99.90;;;;;;5024898;28;20069;-76
2023/07/29 01:56:00;;;;;;;13.00;8.82;;;17.40;99.90;;;;;;4993214;28;20092;-76
2023/07/29 01:58:25;;;;;;;15.73;8.35;;;17.40;99.90;;;;;;4993109;28;20049;-76
2023/07/29 02:00:51;;;;;;;14.70;9.00;;;17.40;99.90;;;;;;5009151;28;20125;-76
2023/07/29 02:03:17;;;;;;;11.70;7.97;;;17.40;99.90;;;;;;4992011;28;20084;-76
2023/07/29 02:05:43;;;;;;;14.07;8.68;;;17.40;99.90;;;;;;5009314;28;20046;-76
2023/07/29 02:08:10;;;;;;;12.20;8.90;;;17.40;99.90;;;;;;4960233;28;20057;-76
2023/07/29 02:10:36;;;;;;;12.95;8.40;;;17.40;99.90;;;;;;4992958;28;20446;-76
2023/07/29 02:13:02;;;;;;;12.30;8.60;;;17.40;99.90;;;;;;5007543;28;20038;-76
2023/07/29 02:15:28;;;;;;;13.43;8.70;;;17.40;99.90;;;;;;4976815;28;20117;-76
2023/07/29 02:17:54;;;;;;;11.05;8.45;;;17.40;99.90;;;;;;4973817;28;20114;-76
2023/07/29 02:20:20;;;;;;;13.85;8.57;;;17.40;99.90;;;;;;5008086;28;20041;-76
2023/07/29 02:22:46;;;;;;;18.95;8.60;;;17.30;99.90;;;;;;4969839;28;20561;-76
2023/07/29 02:25:11;;;;;;;11.02;8.05;;;17.30;99.90;;;;;;5012833;28;20050;-76
2023/07/29 02:27:37;;;;;;;13.25;8.80;;;17.40;99.90;;;;;;4980146;28;20525;-76
2023/07/29 02:30:04;;;;;;;12.73;8.68;;;17.30;99.90;;;;;;5011299;28;20108;-76
2023/07/29 02:32:29;;;;;;;13.30;8.05;;;17.30;99.90;;;;;;4980457;28;20521;-76
2023/07/29 02:34:55;;;;;;;12.75;8.90;;;17.30;99.90;;;;;;4996722;28;20042;-76
2023/07/29 02:37:21;;;;;;;13.95;8.93;;;17.30;99.90;;;;;;5011598;28;20053;-76
2023/07/29 02:39:46;;;;;;;14.15;8.20;;;17.30;99.90;;;;;;5012178;28;20046;-76
2023/07/29 02:42:12;;;;;;;16.65;8.63;;;17.20;99.90;;;;;;4996295;28;20041;-76
2023/07/29 02:44:39;;;;;;;14.52;8.90;;;17.20;99.90;;;;;;4996529;28;20042;-76
2023/07/29 02:47:04;;;;;;;10.15;7.97;;;17.30;99.90;;;;;;5012709;28;20038;-76
2023/07/29 02:49:30;;;;;;;12.27;8.10;;;17.20;99.90;;;;;;5028138;28;20073;-76
2023/07/29 02:51:56;;;;;;;11.73;7.95;;;17.00;99.90;;;;;;5011972;28;20061;-76
2023/07/29 02:54:21;;;;;;;10.90;7.85;;;17.20;99.90;;;;;;5006042;28;20048;-76
2023/07/29 02:56:47;;;;;;;9.32;7.55;;;17.10;99.90;;;;;;4996298;28;20124;-76
2023/07/29 02:59:13;;;;;;;10.82;7.68;;;17.10;99.90;;;;;;4992395;28;20088;-76
2023/07/29 03:01:38;;;;;;;11.93;7.65;;;17.10;99.90;;;;;;5012053;28;20052;-76
2023/07/29 03:04:04;;;;;;;11.40;7.20;;;17.00;99.90;;;;;;4986257;28;20045;-76
2023/07/29 03:06:29;;;;;;;10.45;7.53;;;17.00;99.90;;;;;;5012336;28;20052;-76
2023/07/29 03:08:55;;;;;;;11.57;7.65;;;17.00;99.90;;;;;;4994561;28;20038;-76
2023/07/29 03:11:21;;;;;;;11.73;7.53;;;17.00;99.90;;;;;;4995802;28;20092;-76
2023/07/29 03:13:46;;;;;;;11.02;7.28;;;17.00;99.90;;;;;;5008947;28;20069;-76
2023/07/29 03:16:14;;;;;;;11.13;6.90;;;16.90;99.90;;;;;;4976576;28;20220;-77
2023/07/29 03:18:41;;;;;;;10.23;6.80;;;16.90;99.90;;;;;;4997552;28;20556;-76
2023/07/29 03:21:08;;;;;;;10.63;6.78;;;16.80;99.90;;;;;;5012093;28;20522;-76
2023/07/29 03:23:34;;;;;;;8.73;6.78;;;16.90;99.90;;;;;;4994795;28;20037;-76
2023/07/29 03:26:01;;;;;;;9.70;6.85;;;16.80;99.90;;;;;;4995753;28;20514;-76
2023/07/29 03:28:31;;;;;;;10.43;7.03;;;16.80;99.90;;;;;;5009849;28;20662;-76
2023/07/29 03:30:57;;;;;;;12.15;7.00;;;16.80;99.90;;;;;;5013905;28;20045;-76
2023/07/29 03:33:25;;;;;;;12.40;7.20;;;16.70;99.90;;;;;;4995551;28;20626;-76
2023/07/29 03:35:51;;;;;;;10.63;6.25;;;16.70;99.90;;;;;;5012023;28;20042;-76
2023/07/29 03:38:17;;;;;;;12.55;7.30;;;16.70;99.90;;;;;;4978299;28;20045;-76
2023/07/29 03:40:42;;;;;;;8.38;6.38;;;16.60;99.90;;;;;;4994756;28;20046;-76
2023/07/29 03:43:08;;;;;;;13.68;6.95;;;16.60;99.90;;;;;;5011420;28;20360;-76
2023/07/29 03:45:35;;;;;;;9.85;6.78;;;16.60;99.90;;;;;;4995283;28;20042;-76
2023/07/29 03:48:01;;;;;;;9.60;6.80;;;16.50;99.90;;;;;;4995548;28;20438;-77
2023/07/29 03:50:29;;;;;;;11.05;6.50;;;16.50;99.90;;;;;;5010367;28;20046;-77
2023/07/29 03:52:55;;;;;;;8.70;5.55;;;16.50;99.90;;;;;;4994267;28;20422;-77
2023/07/29 03:55:21;;;;;;;8.93;6.00;;;16.50;99.90;;;;;;4995370;28;20034;-76
2023/07/29 03:57:46;;;;;;;9.43;6.30;;;16.50;99.90;;;;;;5027889;28;20521;-77
2023/07/29 04:00:13;;;;;;;8.60;5.53;;;16.40;99.90;;;;;;5003473;28;20030;-77
2023/07/29 04:02:38;;;;;;;9.80;5.43;;;16.40;99.90;;;;;;4975386;28;20104;-76
2023/07/29 04:05:08;;;;;;;12.57;5.95;;;16.40;99.90;;;;;;5003569;28;20053;-77
2023/07/29 04:07:34;;;;;;;8.70;4.97;;;16.40;99.90;;;;;;4995244;28;20107;-77
2023/07/29 04:10:00;;;;;;;8.40;4.97;;;16.40;99.90;;;;;;4990885;28;20133;-77
2023/07/29 04:12:27;;;;;;;8.48;5.00;;;16.30;99.90;;;;;;4978277;28;20133;-76
2023/07/29 04:14:52;;;;;;;8.73;5.22;;;16.30;99.90;;;;;;4993599;28;20104;-76
2023/07/29 04:17:18;;;;;;;12.63;5.05;;;16.30;99.90;;;;;;4994653;28;20065;-76
2023/07/29 04:19:44;;;;;;;6.50;4.60;;;16.30;99.90;;;;;;4975257;28;20042;-77
2023/07/29 04:22:10;;;;;;;7.72;5.03;;;16.30;99.90;;;;;;4991057;28;20495;-77
2023/07/29 04:24:35;;;;;;;7.88;5.10;;;16.40;99.90;;;;;;4971837;28;20121;-77
2023/07/29 04:27:01;;;;;;;6.55;4.78;;;16.40;99.90;;;;;;5010759;28;20069;-77
2023/07/29 04:29:27;;;;;;;7.88;4.93;;;16.30;99.90;;;;;;4975841;28;20038;-77
2023/07/29 04:31:53;;;;;;;7.40;4.20;;;16.40;99.90;;;;;;4990887;28;20477;-76
2023/07/29 04:34:19;;;;;;;6.13;4.75;;;16.40;99.90;;;;;;4986343;28;20064;-77
2023/07/29 04:36:48;;;;;;;7.18;4.38;;;16.40;99.90;;;;;;5009723;28;20100;-77
2023/07/29 04:39:14;;;;;;;6.32;3.67;;;16.40;99.90;;;;;;4993343;28;20133;-76
2023/07/29 04:41:40;;;;;;;6.95;4.15;;;16.40;99.90;;;;;;4994398;28;20120;-76
2023/07/29 04:44:06;;;;;;;9.27;3.67;;;16.40;99.90;;;;;;4992848;28;20151;-76
2023/07/29 04:46:32;;;;;;;7.40;3.58;;;16.50;99.90;;;;;;5010736;28;20038;-76
2023/07/29 04:48:58;;;;;;;4.70;3.53;;;16.50;99.90;;;;;;4994008;28;20506;-77
2023/07/29 04:51:24;;;;;;;3.60;2.72;;;16.50;99.90;;;;;;4993655;28;20049;-77
2023/07/29 04:53:50;;;;;;;6.38;3.22;;;16.50;99.90;;;;;;4993431;28;20038;-77
2023/07/29 04:56:16;;;;;;;4.78;3.05;;;16.50;99.90;;;;;;4995696;28;20072;-77
2023/07/29 04:58:41;;;;;;;3.92;3.05;;;16.60;99.90;;;;;;5006968;28;20050;-77
2023/07/29 05:01:07;;;;;;;5.22;3.03;;;16.60;99.90;;;;;;4990631;28;20050;-77
2023/07/29 05:03:33;;;;;;;3.85;2.70;;;16.60;99.90;;;;;;5006943;28;20069;-77
2023/07/29 05:05:59;;;;;;;5.53;2.78;;;16.60;99.90;;;;;;4984168;28;20045;-77
2023/07/29 05:08:26;;;;;;;7.75;3.08;;;16.60;99.90;;;;;;5008607;28;20052;-77
2023/07/29 05:10:53;;;;;;;7.43;3.00;;;16.60;99.90;;;;;;5010051;28;20522;-77
2023/07/29 05:13:20;;;;;;;3.72;2.72;;;16.60;99.90;;;;;;5009335;28;20048;-77
2023/07/29 05:15:47;;;;;;;6.35;2.70;;;16.60;99.90;;;;;;4993997;28;20034;-76
2023/07/29 05:18:13;;;;;;;7.53;2.80;;;16.60;99.90;;;;;;4993132;28;20025;-77
2023/07/29 05:20:39;;;;;;;4.25;2.80;;;16.60;99.90;;;;;;4990424;28;20412;-77
2023/07/29 05:23:05;;;;;;;3.72;3.10;;;16.60;99.90;;;;;;4998776;28;20080;-77
2023/07/29 05:25:30;;;;;;;6.55;2.78;;;16.70;99.90;;;;;;5006781;28;20208;-77
2023/07/29 05:27:57;;;;;;;5.15;3.05;;;16.70;99.90;;;;;;4975529;28;20046;-77
2023/07/29 05:30:23;;;;;;;5.85;3.13;;;16.70;99.90;;;;;;4977128;28;20411;-77
2023/07/29 05:32:48;;;;;;;5.38;2.47;;;16.70;99.90;;;;;;4993294;28;20046;-76
2023/07/29 05:35:14;;;;;;;7.22;3.10;;;16.70;99.90;;;;;;4976793;28;20129;-76
2023/07/29 05:37:40;;;;;;;4.85;2.97;;;16.80;99.90;;;;;;5003176;28;20487;-76
2023/07/29 05:40:07;;;;;;;3.55;2.80;;;16.80;99.90;;;;;;5009765;28;20610;-76
2023/07/29 05:42:33;;;;;;;5.30;3.05;;;16.80;99.90;;;;;;4993381;28;20046;-76
2023/07/29 05:44:59;;;;;;;4.38;3.08;;;16.80;99.90;;;;;;4993468;28;20041;-77
2023/07/29 05:47:25;;;;;;;4.97;3.30;;;16.90;99.90;;;;;;4983659;28;20595;-77
2023/07/29 05:49:51;;;;;;;6.53;3.08;;;16.90;99.90;;;;;;4993290;28;20096;-77
2023/07/29 05:52:17;;;;;;;6.35;3.42;;;16.90;99.90;;;;;;5004626;28;20279;-77
2023/07/29 05:54:43;;;;;;;5.75;3.22;;;17.00;99.90;;;;;;4989617;28;20050;-77
2023/07/29 05:57:12;;;;;;;5.28;3.40;;;17.00;99.90;;;;;;4987252;28;20053;-76
2023/07/29 05:59:38;;;;;;;5.50;3.38;;;17.00;99.90;;;;;;4976886;28;20076;-77
2023/07/29 06:02:04;;;;;;;6.78;3.42;;;17.00;99.90;;;;;;4992030;28;20045;-79
2023/07/29 06:04:30;;;;;;;8.32;3.95;;;17.10;99.90;;;;;;4976969;28;20101;-79
2023/07/29 06:06:56;;;;;;;5.20;3.50;;;17.10;99.90;;;;;;4992542;28;20286;-79
2023/07/29 06:09:22;;;;;;;7.18;3.55;;;17.10;99.90;;;;;;4993100;28;20045;-79
2023/07/29 06:11:48;;;;;;;7.75;3.83;;;17.20;99.90;;;;;;4992453;28;20046;-79
2023/07/29 06:14:14;;;;;;;6.68;3.80;;;17.20;99.90;;;;;;5009482;28;20499;-79
2023/07/29 06:16:39;;;;;;;9.35;4.53;;;17.20;99.90;;;;;;5003535;28;20530;-79
2023/07/29 06:19:05;;;;;;;7.30;4.60;;;17.20;99.90;;;;;;4991942;28;20100;-79
2023/07/29 06:21:31;;;;;;;8.00;4.18;;;17.30;99.90;;;;;;5007880;28;20042;-79
2023/07/29 06:23:56;;;;;;;7.68;4.63;;;17.30;99.90;;;;;;4992799;28;20042;-79
2023/07/29 06:26:22;;;;;;;8.85;4.47;;;17.30;99.90;;;;;;4992876;28;20124;-79
2023/07/29 06:28:48;;;;;;;12.05;4.65;;;17.40;99.90;;;;;;5008709;28;20042;-79
2023/07/29 06:31:14;;;;;;;8.32;4.47;;;17.50;99.90;;;;;;5005643;28;20509;-79
2023/07/29 06:33:40;;;;;;;7.90;4.05;;;17.50;99.90;;;;;;4973455;28;20578;-79
2023/07/29 06:36:06;;;;;;;8.60;4.45;;;17.60;99.90;;;;;;4991020;28;20121;-79
2023/07/29 06:38:31;;;;;;;9.38;4.90;;;17.60;99.90;;;;;;4991733;28;20142;-79
2023/07/29 06:40:57;;;;;;;10.38;5.13;;;17.70;99.90;;;;;;4991995;28;20077;-79
2023/07/29 06:43:23;;;;;;;9.52;4.78;;;17.70;99.90;;;;;;4992654;28;20041;-79
2023/07/29 06:45:49;;;;;;;9.77;5.03;;;17.80;99.90;;;;;;4992605;28;20048;-79
2023/07/29 06:48:14;;;;;;;9.27;6.00;;;17.80;99.90;;;;;;4976540;28;20124;-79
2023/07/29 06:50:40;;;;;;;7.50;4.95;;;17.80;99.90;;;;;;5008868;28;20126;-79
2023/07/29 06:53:06;;;;;;;8.90;4.53;;;17.80;99.90;;;;;;4991623;28;20125;-79
2023/07/29 06:55:32;;;;;;;13.32;5.35;;;17.80;99.90;;;;;;4992587;28;20041;-79
2023/07/29 06:57:57;;;;;;;11.43;5.13;;;17.80;99.90;;;;;;4989204;28;20038;-79
2023/07/29 07:00:23;;;;;;;9.30;5.38;;;17.90;99.90;;;;;;4956994;28;20042;-79
2023/07/29 07:02:49;;;;;;;10.57;5.20;;;18.00;99.90;;;;;;4986856;28;20044;-79
2023/07/29 07:05:15;;;;;;;8.90;5.05;;;18.00;99.90;;;;;;5009308;28;20137;-79
2023/07/29 07:07:41;;;;;;;11.02;6.28;;;18.00;99.90;;;;;;5011627;28;20038;-78
2023/07/29 07:10:07;;;;;;;12.27;6.22;;;18.10;99.90;;;;;;5012788;28;20049;-79
2023/07/29 07:12:32;;;;;;;9.10;5.63;;;18.10;99.90;;;;;;4963192;28;20474;-79
2023/07/29 07:14:58;;;;;;;9.32;5.75;;;18.10;99.90;;;;;;4996426;28;20124;-79
2023/07/29 07:17:23;;;;;;;7.30;5.82;;;18.20;99.90;;;;;;4996373;28;20376;-78
2023/07/29 07:19:49;;;;;;;12.95;6.40;;;18.30;99.90;;;;;;4995762;28;20399;-79
2023/07/29 07:22:16;;;;;;;9.70;6.57;;;18.30;99.90;;;;;;4995412;28;20056;-79
2023/07/29 07:24:41;;;;;;;13.57;6.30;;;18.50;99.90;;;;;;4995791;28;20037;-79
2023/07/29 07:27:07;;;;;;;9.25;6.55;;;18.50;99.90;;;;;;4995058;28;20049;-79
2023/07/29 07:29:33;;;;;;;12.57;6.35;;;18.40;99.90;;;;;;4976301;28;20050;-78
2023/07/29 07:31:59;;;;;;;11.35;6.80;;;18.40;99.90;;;;;;4982527;28;20372;-79
2023/07/29 07:34:25;;;;;;;14.60;7.55;;;18.40;99.90;;;;;;4992286;28;20508;-79
2023/07/29 07:36:50;;;;;;;7.68;6.07;;;18.40;99.90;;;;;;4988636;28;20042;-79
2023/07/29 07:39:16;;;;;;;9.93;6.30;;;18.50;99.90;;;;;;5010189;28;20562;-79
2023/07/29 07:41:42;;;;;;;10.75;6.90;;;18.50;99.90;;;;;;4995027;28;20046;-79
2023/07/29 07:44:08;;;;;;;9.50;6.95;;;18.70;99.90;;;;;;4995264;28;20141;-79
2023/07/29 07:46:34;;;;;;;10.90;6.85;;;18.70;99.90;;;;;;4995177;28;20137;-79
2023/07/29 07:48:59;;;;;;;9.45;6.25;;;18.80;99.90;;;;;;4974907;28;20053;-79
2023/07/29 07:51:25;;;;;;;8.63;6.07;;;18.90;99.90;;;;;;4979485;28;20037;-79
2023/07/29 07:53:51;;;;;;;6.72;6.00;;;19.10;99.90;;;;;;5024914;28;20049;-79
2023/07/29 07:56:16;;;;;;;8.25;6.20;;;19.20;99.90;;;;;;4959656;28;20042;-79
2023/07/29 07:58:42;;;;;;;8.98;6.15;;;19.10;99.90;;;;;;5009394;28;20046;-78
2023/07/29 08:01:09;;;;;;;5.50;4.78;;;19.20;99.90;;;;;;4962632;28;20044;-79
2023/07/29 08:03:35;;;;;;;9.23;4.97;;;19.40;99.90;;;;;;4993913;28;20045;-79
2023/07/29 08:06:01;;;;;;;9.00;5.20;;;19.50;99.90;;;;;;4993597;28;20049;-79
2023/07/29 08:08:28;;;;;;;7.95;4.47;;;19.50;99.90;;;;;;5006098;28;20038;-78
2023/07/29 08:10:54;;;;;;;6.63;4.47;;;19.50;99.90;;;;;;4979129;28;20056;-78
2023/07/29 08:13:21;;;;;;;6.78;4.25;;;19.40;99.90;;;;;;4996923;28;20038;-78
2023/07/29 08:15:48;;;;;;;6.63;4.38;;;19.50;99.90;;;;;;4979100;28;20044;-78
2023/07/29 08:18:15;;;;;;;7.78;4.70;;;19.50;99.90;;;;;;4995267;28;20292;-79
2023/07/29 08:20:40;;;;;;;6.93;3.55;;;19.50;99.90;;;;;;4994250;28;20044;-78
2023/07/29 08:23:06;;;;;;;5.55;3.83;;;19.70;99.90;;;;;;4977554;28;20041;-79
2023/07/29 08:25:32;;;;;;;8.55;3.83;;;19.60;99.90;;;;;;4976995;28;20045;-79
2023/07/29 08:27:57;;;;;;;7.35;3.67;;;19.50;99.90;;;;;;4994461;28;20129;-79
2023/07/29 08:30:23;;;;;;;6.15;3.40;;;19.50;99.90;;;;;;4994253;28;20085;-79
2023/07/29 08:32:50;;;;;;;5.90;3.50;;;19.40;99.90;;;;;;4962099;28;20048;-79
2023/07/29 08:35:15;;;;;;;6.13;2.85;;;19.40;99.90;;;;;;4992285;28;20497;-79
2023/07/29 08:37:41;;;;;;;6.65;3.08;;;19.40;99.90;;;;;;5010335;28;20046;-79
2023/07/29 08:40:07;;;;;;;5.15;3.08;;;19.40;99.90;;;;;;4976090;28;20046;-79
2023/07/29 08:42:34;;;;;;;5.20;3.38;;;19.50;99.90;;;;;;4993462;28;20128;-79
2023/07/29 08:45:07;;;;;;;6.00;3.10;;;19.70;99.90;;;;;;4961728;28;20046;-78
2023/07/29 08:47:33;;;;;;;5.47;2.80;;;20.00;99.90;;;;;;5010824;28;20049;-79
2023/07/29 08:50:01;;;;;;;7.18;3.58;;;20.20;99.90;;;;;;4977840;28;20056;-79
2023/07/29 08:52:28;;;;;;;10.20;3.33;;;20.30;99.90;;;;;;4993697;28;20129;-79
2023/07/29 08:54:55;;;;;;;5.00;3.28;;;20.20;99.90;;;;;;5010501;28;20037;-79
2023/07/29 08:57:22;;;;;;;5.65;3.78;;;20.10;99.90;;;;;;5010239;28;20042;-79
2023/07/29 08:59:48;;;;;;;8.02;3.30;;;20.10;99.90;;;;;;4996795;28;20579;-79
2023/07/29 09:02:13;;;;;;;5.43;3.35;;;20.20;99.90;;;;;;5007305;28;20078;-79
2023/07/29 09:04:39;;;;;;;3.80;3.20;;;20.20;99.90;;;;;;5010384;28;20054;-79
2023/07/29 09:07:06;;;;;;;4.43;2.92;;;20.40;99.90;;;;;;4977614;28;20148;-79
2023/07/29 09:09:32;;;;;;;6.25;3.58;;;20.40;99.90;;;;;;4993831;28;20083;-79
2023/07/29 09:11:58;;;;;;;8.00;3.13;;;20.40;99.90;;;;;;4993250;28;20081;-80
2023/07/29 09:14:24;;;;;;;4.63;3.40;;;20.60;99.90;;;;;;4974734;28;20129;-79
2023/07/29 09:16:50;;;;;;;4.60;3.40;;;20.70;99.90;;;;;;4974755;28;20488;-79
2023/07/29 09:19:16;;;;;;;7.45;3.53;;;20.70;99.90;;;;;;4980982;28;20040;-79
2023/07/29 09:21:42;;;;;;;8.02;3.80;;;20.70;99.90;;;;;;5009488;28;20041;-79
2023/07/29 09:24:08;;;;;;;10.23;3.30;;;20.70;99.90;;;;;;4990335;28;20052;-79
2023/07/29 09:26:34;;;;;;;6.82;3.13;;;20.90;99.90;;;;;;4990768;28;20388;-79
2023/07/29 09:29:00;;;;;;;4.50;3.30;;;20.90;99.90;;;;;;5008561;28;20407;-79
2023/07/29 09:31:28;;;;;;;4.20;3.00;;;20.80;99.90;;;;;;4992936;28;20041;-79
2023/07/29 09:34:02;;;;;;;5.00;2.65;;;20.90;99.90;;;;;;4994213;28;20037;-79
2023/07/29 09:36:31;;;;;;;3.47;2.78;;;21.10;99.90;;;;;;5006930;28;20038;-79
2023/07/29 09:38:57;;;;;;;5.05;3.13;;;21.30;99.90;;;;;;4976671;28;20406;-79
2023/07/29 09:41:27;;;;;;;4.63;2.83;;;21.50;99.90;;;;;;4992829;28;20038;-79
2023/07/29 09:43:58;;;;;;;6.03;3.13;;;21.40;99.90;;;;;;4993315;28;20042;-79
2023/07/29 09:46:31;;;;;;;8.68;3.13;;;21.60;99.90;;;;;;4993076;28;20041;-79
2023/07/29 09:48:57;;;;;;;4.38;2.53;;;21.90;99.90;;;;;;4992247;28;20044;-79
2023/07/29 09:51:23;;;;;;;2.95;2.40;;;21.90;99.90;;;;;;5009212;28;20042;-79
2023/07/29 09:53:52;;;;;;;3.70;2.28;;;21.90;99.90;;;;;;5008889;28;20487;-79
2023/07/29 09:56:23;;;;;;;3.60;2.08;;;22.00;99.90;;;;;;4993204;28;20034;-79
2023/07/29 09:58:50;;;;;;;3.45;2.40;;;21.90;99.90;;;;;;5009744;28;20034;-78
2023/07/29 10:01:16;;;;;;;3.70;2.13;;;22.00;99.90;;;;;;4993437;28;20458;-79
2023/07/29 10:03:43;;;;;;;3.05;2.20;;;21.90;99.90;;;;;;4992485;28;20052;-79
2023/07/29 10:06:10;;;;;;;3.65;1.90;;;21.80;99.90;;;;;;5009078;28;20033;-79
2023/07/29 10:08:39;;;;;;;2.83;2.20;;;21.50;99.90;;;;;;5009710;28;20486;-79
2023/07/29 10:11:09;;;;;;;5.32;2.65;;;21.50;99.90;;;;;;5005733;28;20048;-79
2023/07/29 10:13:35;;;;;;;2.40;2.00;;;21.60;99.90;;;;;;4976838;28;20132;-78
2023/07/29 10:16:05;;;;;;;3.78;1.65;;;21.60;99.90;;;;;;5005072;28;20453;-79
2023/07/29 10:18:32;;;;;;;2.72;2.10;;;21.50;99.90;;;;;;5009336;28;20503;-79
2023/07/29 10:20:59;;;;;;;2.65;1.95;;;21.50;99.90;;;;;;5008249;28;20044;-79
2023/07/29 10:23:27;;;;;;;4.03;2.13;;;21.50;99.90;;;;;;5007945;28;20060;-79
2023/07/29 10:26:04;;;;;;;3.85;2.03;;;21.40;99.90;;;;;;4985276;28;20197;-79
2023/07/29 10:28:31;;;;;;;3.45;1.90;;;21.40;99.90;;;;;;4974924;28;20511;-79
2023/07/29 10:30:58;;;;;;;4.07;2.67;;;21.40;99.90;;;;;;5007450;28;20041;-79
2023/07/29 10:33:25;;;;;;;2.78;2.10;;;21.60;99.90;;;;;;5005173;28;20073;-79
2023/07/29 10:35:52;;;;;;;4.00;1.92;;;21.60;99.90;;;;;;5005803;28;20100;-79
2023/07/29 10:38:19;;;;;;;5.32;2.08;;;21.70;99.90;;;;;;4976990;28;20141;-79
2023/07/29 10:40:47;;;;;;;2.38;1.73;;;21.80;99.90;;;;;;4977849;28;20042;-79
2023/07/29 10:43:38;;;;;;;3.10;2.00;;;21.90;99.90;;;;;;5028953;28;20522;-79
2023/07/29 10:46:23;;;;;;;4.00;2.03;;;21.80;99.90;;;;;;5025735;28;20105;-79
2023/07/29 10:48:56;;;;;;;5.15;2.03;;;21.80;99.90;;;;;;4977820;28;20072;-79
2023/07/29 10:51:30;;;;;;;4.43;2.03;;;22.00;99.90;;;;;;5012702;28;20052;-79
2023/07/29 10:53:58;;;;;;;3.17;2.10;;;22.10;99.90;;;;;;4980436;28;20046;-79
2023/07/29 10:56:28;;;;;;;3.53;2.30;;;22.40;99.90;;;;;;4999049;28;20043;-79
2023/07/29 10:58:56;;;;;;;5.70;2.10;;;22.70;99.90;;;;;;4998038;28;20054;-79
2023/07/29 11:01:34;;;;;;;2.40;2.08;;;22.90;99.90;;;;;;4993728;28;20129;-79
2023/07/29 11:04:30;;;;;;;2.97;2.10;;;23.20;99.90;;;;;;5012999;28;20037;-80
2023/07/29 11:07:08;;;;;;;8.10;2.30;;;23.20;99.90;;;;;;5024395;28;20038;-79
2023/07/29 11:09:52;;;;;;;4.32;2.30;;;23.30;99.90;;;;;;4977236;28;20045;-80
2023/07/29 11:12:53;;;;;;;4.18;2.92;;;23.30;99.90;;;;;;4993897;28;20414;-79
2023/07/29 11:15:28;;;;;;;3.43;2.70;;;23.30;99.90;;;;;;4979022;28;20100;-79
2023/07/29 11:17:59;;;;;;;3.28;2.80;;;23.30;99.90;;;;;;5013345;28;20092;-80
2023/07/29 11:20:25;;;;;;;4.93;3.08;;;23.20;99.90;;;;;;5009850;28;20258;-78
2023/07/29 11:22:54;;;;;;;3.55;3.25;;;23.10;99.90;;;;;;4996643;28;20454;-80
2023/07/29 11:25:22;;;;;;;4.35;3.38;;;22.80;99.90;;;;;;4979911;28;20048;-79
2023/07/29 11:27:48;;;;;;;5.07;3.80;;;22.50;99.90;;;;;;5011407;28;20037;-79
2023/07/29 11:30:15;;;;;;;4.05;3.30;;;22.30;99.90;;;;;;4996236;28;20084;-80
2023/07/29 11:32:43;;;;;;;4.88;3.90;;;22.10;99.90;;;;;;4992891;28;20412;-79
2023/07/29 11:35:14;;;;;;;4.28;3.88;;;22.20;99.90;;;;;;5008774;28;20046;-79
2023/07/29 11:37:42;;;;;;;5.32;3.47;;;22.20;99.90;;;;;;5010636;28;20038;-80
2023/07/29 11:40:10;;;;;;;4.53;4.03;;;22.20;99.90;;;;;;4977031;28;20082;-79
2023/07/29 11:42:38;;;;;;;5.13;3.65;;;22.10;99.90;;;;;;4942675;28;20500;-79
2023/07/29 11:45:06;;;;;;;5.68;3.80;;;22.00;99.90;;;;;;4957057;28;20046;-79
2023/07/29 11:47:36;;;;;;;4.28;3.15;;;22.00;99.90;;;;;;4959608;28;20117;-78
2023/07/29 11:50:10;;;;;;;3.85;2.92;;;22.00;99.90;;;;;;4976098;28;20513;-78
2023/07/29 11:52:41;;;;;;;5.82;3.30;;;22.00;99.90;;;;;;4942130;28;20050;-78
2023/07/29 11:55:07;;;;;;;4.30;3.22;;;22.00;99.90;;;;;;4964653;28;20034;-78
2023/07/29 11:57:36;;;;;;;3.80;3.30;;;22.10;99.90;;;;;;4959652;28;20038;-78
2023/07/29 12:00:07;;;;;;;4.85;3.15;;;22.00;99.90;;;;;;4975791;28;20034;-77
2023/07/29 12:02:37;;;;;;;4.15;3.30;;;21.90;99.90;;;;;;4959654;28;20050;-78
2023/07/29 12:05:04;;;;;;;5.80;3.10;;;21.70;99.90;;;;;;4956556;28;20117;-77
2023/07/29 12:07:30;;;;;;;5.30;3.10;;;21.70;99.90;;;;;;4940378;28;20046;-77
2023/07/29 12:09:56;;;;;;;4.57;2.58;;;21.80;99.90;;;;;;4957109;28;20052;-78
2023/07/29 12:12:23;;;;;;;3.40;2.83;;;21.90;99.90;;;;;;4958865;28;20039;-77
2023/07/29 12:14:48;;;;;;;4.40;2.83;;;22.00;99.90;;;;;;4958148;28;20078;-78
2023/07/29 12:17:14;;;;;;;3.70;2.78;;;22.10;99.90;;;;;;4943221;28;20515;-78
2023/07/29 12:19:41;;;;;;;2.90;2.28;;;22.20;99.90;;;;;;4974060;28;20070;-78
2023/07/29 12:22:09;;;;;;;4.28;2.65;;;22.50;99.90;;;;;;4972444;28;20034;-78
2023/07/29 12:24:37;;;;;;;4.53;2.20;;;22.70;99.90;;;;;;4955996;28;20054;-78
2023/07/29 12:27:04;;;;;;;3.58;2.35;;;22.90;99.90;;;;;;4974186;28;20358;-78
2023/07/29 12:29:29;;;;;;;3.75;2.10;;;23.00;99.90;;;;;;4959134;28;20073;-77
2023/07/29 12:32:00;;;;;;;2.63;2.00;;;23.00;99.90;;;;;;4970346;28;20077;-78
2023/07/29 12:34:30;;;;;;;4.38;2.42;;;23.20;99.90;;;;;;4958488;28;20096;-78
2023/07/29 12:36:58;;;;;;;3.28;2.10;;;23.20;99.90;;;;;;4959201;28;20038;-77
2023/07/29 12:39:32;;;;;;;4.82;2.50;;;23.20;99.90;;;;;;4985152;28;20073;-78
2023/07/29 12:42:00;;;;;;;4.85;1.90;;;23.20;99.90;;;;;;4970980;28;20043;-78
2023/07/29 12:44:32;;;;;;;3.40;1.92;;;23.10;99.90;;;;;;4973255;28;20043;-78